Time;durP1;ratioP1;P1;durP2;ratioP2;P2;SDS_P1;SDS_P2;PMS_P1;PMS_P2;Temp;Humidity;BMP_temperature;BMP_pressure;BME280_temperature;BME280_humidity;BME280_pressure;Samples;Min_cycle;Max_cycle;Signal;HPM_P1;HPM_P2
2024/03/27 00:00:26;;;;;;;3.97;2.90;;;;;;;3.92;100.00;99452.88;5067643;28;20031;-72
2024/03/27 00:02:51;;;;;;;3.90;2.55;;;;;;;3.88;100.00;99446.28;5099764;28;20055;-72
2024/03/27 00:05:17;;;;;;;4.53;2.83;;;;;;;3.92;100.00;99447.56;5118091;28;20044;-72
2024/03/27 00:07:42;;;;;;;4.22;2.67;;;;;;;3.73;100.00;99412.56;5101209;28;20495;-72
2024/03/27 00:10:08;;;;;;;5.20;2.80;;;;;;;3.96;100.00;99446.97;5084931;28;20044;-72
2024/03/27 00:12:34;;;;;;;5.38;3.08;;;;;;;3.99;100.00;99446.59;5099945;28;20054;-73
2024/03/27 00:15:01;;;;;;;5.13;3.00;;;;;;;3.89;100.00;99423.97;5083788;28;20032;-72
2024/03/27 00:17:26;;;;;;;7.13;3.28;;;;;;;3.95;100.00;99428.56;5100051;28;20100;-72
2024/03/27 00:19:52;;;;;;;4.22;2.95;;;;;;;3.89;100.00;99418.66;5099737;28;20078;-72
2024/03/27 00:22:18;;;;;;;5.00;3.42;;;;;;;3.87;100.00;99420.69;5074007;28;20041;-72
2024/03/27 00:24:43;;;;;;;5.80;3.35;;;;;;;3.85;100.00;99412.09;5079269;28;20092;-72
2024/03/27 00:27:08;;;;;;;4.75;3.35;;;;;;;3.87;100.00;99426.00;5085054;28;20122;-73
2024/03/27 00:29:34;;;;;;;6.07;3.22;;;;;;;3.78;100.00;99424.50;5060164;28;20063;-72
2024/03/27 00:31:59;;;;;;;4.97;2.90;;;;;;;3.64;100.00;99391.59;5057878;28;20537;-72
2024/03/27 00:34:25;;;;;;;4.45;3.10;;;;;;;3.75;100.00;99409.72;5076320;28;20095;-72
2024/03/27 00:36:50;;;;;;;5.20;3.40;;;;;;;3.71;100.00;99393.31;5093252;28;20032;-72
2024/03/27 00:39:15;;;;;;;4.07;3.00;;;;;;;3.70;100.00;99404.13;5094551;28;20028;-72
2024/03/27 00:41:41;;;;;;;5.25;3.13;;;;;;;3.68;100.00;99401.69;5095935;28;20033;-72
2024/03/27 00:44:06;;;;;;;5.47;3.60;;;;;;;3.60;100.00;99387.66;5095960;28;20487;-72
2024/03/27 00:46:31;;;;;;;4.13;3.42;;;;;;;3.66;100.00;99389.56;5062239;28;20045;-72
2024/03/27 00:48:58;;;;;;;5.80;3.47;;;;;;;3.66;100.00;99386.91;5090522;28;20048;-72
2024/03/27 00:51:24;;;;;;;5.97;3.30;;;;;;;3.60;100.00;99383.16;5085145;28;20430;-73
2024/03/27 00:53:50;;;;;;;4.70;3.53;;;;;;;3.62;100.00;99381.16;5060281;28;20041;-71
2024/03/27 00:56:15;;;;;;;5.18;3.67;;;;;;;3.67;100.00;99383.22;5080075;28;20020;-72
2024/03/27 00:58:42;;;;;;;4.95;3.42;;;;;;;3.64;100.00;99372.97;5096656;28;20131;-72
2024/03/27 01:01:07;;;;;;;4.80;3.38;;;;;;;3.45;100.00;99338.03;5096897;28;20040;-72
2024/03/27 01:03:32;;;;;;;5.15;3.15;;;;;;;3.65;100.00;99364.81;5079048;28;20033;-72
2024/03/27 01:05:58;;;;;;;7.97;4.30;;;;;;;3.71;100.00;99360.59;5079430;28;20029;-72
2024/03/27 01:08:23;;;;;;;7.22;4.00;;;;;;;3.44;100.00;99304.44;5095181;28;20028;-72
2024/03/27 01:10:51;;;;;;;6.30;3.80;;;;;;;3.67;100.00;99344.16;5079220;28;20041;-72
2024/03/27 01:13:17;;;;;;;6.80;4.10;;;;;;;3.75;100.00;99360.00;5097111;28;20132;-72
2024/03/27 01:15:52;;;;;;;6.43;4.50;;;;;;;3.80;100.00;99353.28;5096736;28;20116;-72
2024/03/27 01:18:18;;;;;;;6.95;4.35;;;;;;;3.81;100.00;99338.94;5079493;28;20055;-72
2024/03/27 01:20:45;;;;;;;5.53;4.22;;;;;;;3.57;100.00;99311.72;5079424;28;20032;-72
2024/03/27 01:23:11;;;;;;;7.90;4.60;;;;;;;3.84;100.00;99335.91;5078487;28;20062;-72
2024/03/27 01:25:36;;;;;;;6.70;4.95;;;;;;;3.87;100.00;99341.66;5097859;28;20096;-72
2024/03/27 01:28:03;;;;;;;6.10;4.22;;;;;;;3.86;100.00;99332.06;5097260;28;20048;-72
2024/03/27 01:30:29;;;;;;;6.38;4.90;;;;;;;3.92;100.00;99339.28;5096638;28;20024;-72
2024/03/27 01:32:54;;;;;;;9.30;5.05;;;;;;;3.91;100.00;99334.16;5078958;28;20027;-72
2024/03/27 01:35:19;;;;;;;6.68;4.82;;;;;;;3.64;100.00;99288.69;5062039;28;20033;-72
2024/03/27 01:37:45;;;;;;;12.95;5.13;;;;;;;3.86;100.00;99324.06;5078542;28;20497;-72
2024/03/27 01:40:11;;;;;;;8.02;4.93;;;;;;;3.92;100.00;99322.50;5062075;28;20039;-72
2024/03/27 01:42:36;;;;;;;7.10;5.10;;;;;;;3.99;100.00;99326.03;5061920;28;20036;-72
2024/03/27 01:45:02;;;;;;;8.13;5.30;;;;;;;4.00;100.00;99330.31;5074452;28;20554;-74
2024/03/27 01:47:28;;;;;;;7.45;5.32;;;;;;;3.95;100.00;99312.28;5097148;28;20028;-74
2024/03/27 01:49:55;;;;;;;7.97;5.38;;;;;;;3.98;100.00;99316.41;5079592;28;20088;-74
2024/03/27 01:52:21;;;;;;;7.78;5.47;;;;;;;4.00;100.00;99317.81;5097012;28;20040;-74
2024/03/27 01:54:48;;;;;;;8.02;4.40;;;;;;;3.94;100.00;99315.97;5062434;28;20024;-74
2024/03/27 01:57:13;;;;;;;9.27;5.50;;;;;;;3.89;100.00;99297.06;5096697;28;20040;-74
2024/03/27 01:59:40;;;;;;;8.82;5.55;;;;;;;3.96;100.00;99297.13;5095378;28;20071;-74
2024/03/27 02:02:07;;;;;;;7.28;5.53;;;;;;;3.97;100.00;99299.63;5096748;28;20017;-74
2024/03/27 02:04:32;;;;;;;8.20;5.25;;;;;;;3.81;100.00;99265.31;5096668;28;20032;-74
2024/03/27 02:06:59;;;;;;;7.70;5.53;;;;;;;4.01;100.00;99294.72;5060843;28;20044;-74
2024/03/27 02:09:25;;;;;;;6.55;4.82;;;;;;;4.02;100.00;99292.88;5095694;28;20293;-74
2024/03/27 02:11:51;;;;;;;8.98;5.80;;;;;;;4.08;100.00;99297.44;5095980;28;20044;-74
2024/03/27 02:14:17;;;;;;;9.82;6.22;;;;;;;4.01;100.00;99302.72;5061836;28;20040;-74
2024/03/27 02:16:42;;;;;;;8.75;5.70;;;;;;;4.03;100.00;99289.19;5095331;28;20017;-74
2024/03/27 02:19:08;;;;;;;8.07;6.35;;;;;;;4.09;100.00;99289.25;5078424;28;20040;-74
2024/03/27 02:21:37;;;;;;;8.70;6.05;;;;;;;4.11;100.00;99291.72;5093820;28;20036;-74
2024/03/27 02:24:21;;;;;;;8.20;5.53;;;;;;;4.08;100.00;99290.25;5078361;28;20060;-74
2024/03/27 02:26:47;;;;;;;9.73;5.32;;;;;;;4.00;100.00;99279.75;5094446;28;20056;-74
2024/03/27 02:29:12;;;;;;;8.85;5.78;;;;;;;4.11;100.00;99292.53;5095656;28;20036;-74
2024/03/27 02:31:37;;;;;;;9.38;5.70;;;;;;;4.10;100.00;99277.56;5078532;28;20041;-74
2024/03/27 02:34:03;;;;;;;8.38;6.18;;;;;;;4.12;100.00;99288.84;5096162;28;20008;-74
2024/03/27 02:36:29;;;;;;;7.97;6.00;;;;;;;4.09;100.00;99289.25;5089424;28;20040;-74
2024/03/27 02:38:54;;;;;;;7.80;5.93;;;;;;;4.06;100.00;99280.81;5087168;28;20024;-74
2024/03/27 02:41:19;;;;;;;10.23;6.70;;;;;;;3.86;100.00;99254.06;5095367;28;20059;-73
2024/03/27 02:43:45;;;;;;;9.15;5.95;;;;;;;3.94;100.00;99262.75;5077944;28;20032;-74
2024/03/27 02:46:11;;;;;;;7.85;5.82;;;;;;;3.43;100.00;99180.50;5077896;28;20056;-74
2024/03/27 02:48:36;;;;;;;7.78;5.90;;;;;;;4.03;100.00;99270.56;5078048;28;20061;-74
2024/03/27 02:51:02;;;;;;;9.07;6.35;;;;;;;3.98;100.00;99276.47;5095703;28;20025;-74
2024/03/27 02:53:27;;;;;;;10.43;6.53;;;;;;;4.04;100.00;99259.75;5076171;28;20072;-73
2024/03/27 02:55:53;;;;;;;9.98;6.63;;;;;;;4.12;100.00;99264.91;5076651;28;20056;-74
2024/03/27 02:58:18;;;;;;;10.65;6.70;;;;;;;3.86;100.00;99232.78;5076210;28;20016;-73
2024/03/27 03:00:45;;;;;;;9.77;6.63;;;;;;;4.10;100.00;99261.59;5078046;28;20041;-74
2024/03/27 03:03:14;;;;;;;9.48;7.20;;;;;;;4.10;100.00;99266.09;5094447;28;20044;-74
2024/03/27 03:05:40;;;;;;;9.90;6.70;;;;;;;4.15;100.00;99267.16;5078278;28;20037;-74
2024/03/27 03:08:06;;;;;;;11.10;6.93;;;;;;;4.14;100.00;99256.69;5090829;28;20064;-74
2024/03/27 03:10:31;;;;;;;10.02;6.90;;;;;;;4.13;100.00;99261.22;5070267;28;20032;-74
2024/03/27 03:12:57;;;;;;;8.38;6.85;;;;;;;4.15;100.00;99253.88;5075977;28;20036;-74
2024/03/27 03:15:23;;;;;;;8.80;6.85;;;;;;;4.16;100.00;99260.81;5078045;28;20043;-74
2024/03/27 03:17:49;;;;;;;10.68;7.72;;;;;;;4.11;100.00;99251.78;5077680;28;20100;-73
2024/03/27 03:20:15;;;;;;;10.27;6.75;;;;;;;4.21;100.00;99254.94;5094380;28;20019;-73
2024/03/27 03:22:40;;;;;;;11.20;7.43;;;;;;;4.22;100.00;99253.91;5077578;28;20032;-74
2024/03/27 03:25:06;;;;;;;10.57;7.57;;;;;;;4.21;100.00;99249.59;5095250;28;20066;-74
2024/03/27 03:27:35;;;;;;;9.68;7.18;;;;;;;4.24;100.00;99246.56;5095589;28;20036;-74
2024/03/27 03:30:00;;;;;;;10.93;7.60;;;;;;;2.32;100.00;98935.84;5075984;28;20115;-73
2024/03/27 03:32:26;;;;;;;11.43;7.78;;;;;;;4.28;100.00;99242.47;5081344;28;20056;-73
2024/03/27 03:34:52;;;;;;;10.00;7.10;;;;;;;4.27;100.00;99239.97;5077104;28;20034;-74
2024/03/27 03:37:17;;;;;;;10.23;7.70;;;;;;;4.31;100.00;99230.63;5060766;28;20041;-73
2024/03/27 03:39:49;;;;;;;12.20;8.20;;;;;;;4.07;100.00;99181.31;5076864;28;20041;-74
2024/03/27 03:42:15;;;;;;;11.70;8.20;;;;;;;4.35;100.00;99215.88;5076247;28;20035;-74
2024/03/27 03:44:49;;;;;;;11.48;7.57;;;;;;;4.34;100.00;99212.41;5060258;28;20040;-73
2024/03/27 03:47:15;;;;;;;9.75;7.68;;;;;;;4.33;100.00;99205.41;5026941;28;20043;-74
2024/03/27 03:49:41;;;;;;;12.32;7.68;;;;;;;4.28;100.00;99194.53;5077267;28;20017;-73
2024/03/27 03:52:06;;;;;;;10.00;7.38;;;;;;;4.12;100.00;99169.06;5060307;28;20064;-74
2024/03/27 03:54:31;;;;;;;11.23;7.85;;;;;;;4.15;100.00;99171.34;5060616;28;20044;-73
2024/03/27 03:56:57;;;;;;;12.43;7.75;;;;;;;4.30;100.00;99199.66;5076488;28;20087;-73
2024/03/27 03:59:22;;;;;;;9.88;7.70;;;;;;;4.22;100.00;99196.16;5077773;28;20027;-73
2024/03/27 04:01:48;;;;;;;13.15;7.78;;;;;;;4.08;100.00;99172.34;5060457;28;20050;-73
2024/03/27 04:04:13;;;;;;;10.50;7.35;;;;;;;4.18;100.00;99183.44;5076870;28;20029;-74
2024/03/27 04:06:38;;;;;;;11.52;7.82;;;;;;;4.27;100.00;99192.88;5077071;28;20051;-74
2024/03/27 04:09:04;;;;;;;12.20;7.57;;;;;;;4.24;100.00;99191.47;5094122;28;20032;-74
2024/03/27 04:11:29;;;;;;;12.35;7.82;;;;;;;4.26;100.00;99196.56;5060836;28;20021;-74
2024/03/27 04:13:55;;;;;;;12.27;8.15;;;;;;;4.28;100.00;99193.72;5077205;28;20071;-73
2024/03/27 04:16:20;;;;;;;11.05;8.18;;;;;;;4.26;100.00;99185.09;5076818;28;20025;-74
2024/03/27 04:18:45;;;;;;;9.57;7.90;;;;;;;4.28;100.00;99185.75;5077136;28;20027;-74
2024/03/27 04:21:11;;;;;;;11.60;7.43;;;;;;;4.08;100.00;99148.38;5077311;28;20101;-73
2024/03/27 04:23:36;;;;;;;13.18;8.27;;;;;;;4.31;100.00;99180.03;5094187;28;20048;-73
2024/03/27 04:26:02;;;;;;;11.43;8.57;;;;;;;4.34;100.00;99183.09;5076633;28;20041;-73
2024/03/27 04:28:27;;;;;;;11.68;7.47;;;;;;;4.33;100.00;99181.44;5077129;28;20135;-73
2024/03/27 04:30:53;;;;;;;11.60;8.27;;;;;;;4.32;100.00;99176.31;5094791;28;20036;-73
2024/03/27 04:33:19;;;;;;;11.68;8.45;;;;;;;4.32;100.00;99166.50;5094421;28;20016;-73
2024/03/27 04:35:45;;;;;;;11.07;8.40;;;;;;;4.38;100.00;99168.38;5094236;28;20036;-73
2024/03/27 04:38:10;;;;;;;14.23;8.68;;;;;;;4.32;100.00;99165.69;5059540;28;20079;-74
2024/03/27 04:40:36;;;;;;;13.63;9.68;;;;;;;4.37;100.00;99165.88;5040235;28;20072;-74
2024/03/27 04:43:02;;;;;;;12.27;7.97;;;;;;;4.00;100.00;99120.06;5074234;28;20060;-73
2024/03/27 04:45:29;;;;;;;13.88;7.47;;;;;;;4.29;100.00;99161.56;5095299;28;20025;-73
2024/03/27 04:47:54;;;;;;;10.07;7.95;;;;;;;4.29;100.00;99155.41;5096053;28;20055;-75
2024/03/27 04:50:20;;;;;;;11.30;7.95;;;;;;;4.27;100.00;99154.78;5076646;28;20092;-72
2024/03/27 04:52:45;;;;;;;11.35;7.78;;;;;;;4.37;100.00;99165.88;5031331;28;20036;-73
2024/03/27 04:55:10;;;;;;;12.05;8.07;;;;;;;4.40;100.00;99154.84;5086773;28;20025;-73
2024/03/27 04:57:36;;;;;;;11.40;8.70;;;;;;;4.11;100.00;99113.38;5086103;28;20099;-73
2024/03/27 05:00:02;;;;;;;11.38;8.13;;;;;;;4.31;100.00;99146.22;5095441;28;20036;-74
2024/03/27 05:02:27;;;;;;;11.55;8.10;;;;;;;4.24;100.00;99126.75;5077699;28;20048;-73
2024/03/27 05:04:54;;;;;;;10.48;8.05;;;;;;;4.34;100.00;99144.97;5062944;28;20489;-74
2024/03/27 05:07:19;;;;;;;14.23;8.38;;;;;;;4.16;100.00;99129.56;5063215;28;20033;-74
2024/03/27 05:09:45;;;;;;;12.80;8.63;;;;;;;4.38;100.00;99157.72;5097271;28;20020;-73
2024/03/27 05:12:11;;;;;;;15.50;8.68;;;;;;;4.19;100.00;99121.19;5097263;28;20046;-73
2024/03/27 05:14:37;;;;;;;12.32;8.35;;;;;;;4.47;100.00;99158.38;5063944;28;20040;-73
2024/03/27 05:17:02;;;;;;;12.73;8.43;;;;;;;4.48;100.00;99162.66;5079689;28;20059;-76
2024/03/27 05:19:28;;;;;;;11.63;8.38;;;;;;;4.51;100.00;99151.63;5062019;28;20044;-72
2024/03/27 05:21:53;;;;;;;11.63;9.00;;;;;;;4.52;100.00;99155.09;5095266;28;20032;-72
2024/03/27 05:24:19;;;;;;;12.60;8.43;;;;;;;4.42;100.00;99139.50;5077596;28;20483;-74
2024/03/27 05:26:48;;;;;;;14.45;9.10;;;;;;;4.52;100.00;99155.91;5076203;28;20052;-73
2024/03/27 05:29:14;;;;;;;12.00;8.70;;;;;;;4.29;100.00;99104.84;5081233;28;20397;-76
2024/03/27 05:31:53;;;;;;;10.65;8.50;;;;;;;4.54;100.00;99142.41;5094692;28;20056;-72
2024/03/27 05:34:19;;;;;;;10.60;8.20;;;;;;;4.33;100.00;99120.19;5060596;28;20028;-72
2024/03/27 05:36:45;;;;;;;12.68;8.52;;;;;;;4.61;100.00;99144.06;5077322;28;20055;-72
2024/03/27 05:39:11;;;;;;;11.63;8.85;;;;;;;4.58;100.00;99148.97;5077801;28;20152;-73
2024/03/27 05:41:37;;;;;;;13.75;8.95;;;;;;;4.53;100.00;99127.44;5078352;28;20040;-73
2024/03/27 05:44:03;;;;;;;10.02;8.05;;;;;;;4.64;100.00;99140.19;5095228;28;20032;-73
2024/03/27 05:46:30;;;;;;;11.00;7.82;;;;;;;4.59;100.00;99130.09;5070527;28;20104;-73
2024/03/27 05:48:56;;;;;;;11.50;7.35;;;;;;;4.53;100.00;99122.09;5091834;28;20024;-72
2024/03/27 05:51:29;;;;;;;13.13;8.10;;;;;;;4.64;100.00;99125.00;5075851;28;20063;-73
2024/03/27 05:53:54;;;;;;;11.05;8.32;;;;;;;4.59;100.00;99135.44;5074483;28;20047;-73
2024/03/27 05:56:20;;;;;;;11.20;8.05;;;;;;;4.63;100.00;99122.53;5074997;28;20369;-73
2024/03/27 05:58:45;;;;;;;12.70;7.45;;;;;;;4.56;100.00;99114.53;5091863;28;20040;-73
2024/03/27 06:01:11;;;;;;;11.93;8.20;;;;;;;4.70;100.00;99129.53;5093813;28;20029;-73
2024/03/27 06:03:36;;;;;;;10.90;8.40;;;;;;;4.70;100.00;99113.56;5093823;28;20063;-73
2024/03/27 06:06:02;;;;;;;11.27;8.52;;;;;;;4.76;100.00;99111.91;5075847;28;20037;-73
2024/03/27 06:08:27;;;;;;;13.18;8.55;;;;;;;4.77;100.00;99118.88;5054399;28;20112;-73
2024/03/27 06:10:53;;;;;;;11.18;7.10;;;;;;;4.71;100.00;99117.03;5060254;28;20058;-73
2024/03/27 06:13:18;;;;;;;11.73;8.70;;;;;;;4.74;100.00;99111.28;5075873;28;20063;-73
2024/03/27 06:15:44;;;;;;;10.38;7.90;;;;;;;4.80;100.00;99122.97;5058016;28;20058;-74
2024/03/27 06:18:10;;;;;;;11.85;8.65;;;;;;;4.83;100.00;99114.56;5093635;28;20048;-73
2024/03/27 06:20:36;;;;;;;12.02;8.77;;;;;;;4.94;100.00;99119.31;5091721;28;20036;-73
2024/03/27 06:23:01;;;;;;;11.48;8.25;;;;;;;4.91;100.00;99117.88;5042848;28;20033;-73
2024/03/27 06:25:27;;;;;;;12.10;8.07;;;;;;;4.86;100.00;99114.97;5059208;28;20573;-73
2024/03/27 06:27:52;;;;;;;13.13;8.10;;;;;;;4.89;100.00;99108.44;5092768;28;20032;-73
2024/03/27 06:30:18;;;;;;;11.10;7.40;;;;;;;4.91;100.00;99114.38;5076098;28;20069;-73
2024/03/27 06:32:44;;;;;;;12.20;8.27;;;;;;;5.01;100.00;99106.81;5094985;28;20036;-73
2024/03/27 06:35:10;;;;;;;10.10;8.05;;;;;;;5.01;100.00;99108.66;5094824;28;20032;-73
2024/03/27 06:37:36;;;;;;;14.50;8.45;;;;;;;5.13;100.00;99113.19;5093372;28;20040;-73
2024/03/27 06:40:02;;;;;;;14.73;8.45;;;;;;;5.13;100.00;99112.31;5087741;28;20044;-74
2024/03/27 06:42:27;;;;;;;11.57;8.13;;;;;;;5.31;100.00;99109.06;5089482;28;20040;-73
2024/03/27 06:44:56;;;;;;;11.10;8.30;;;;;;;5.31;100.00;99114.38;5092665;28;20051;-73
2024/03/27 06:47:26;;;;;;;10.02;7.78;;;;;;;5.23;100.00;99102.09;5090993;28;20051;-73
2024/03/27 06:49:52;;;;;;;12.20;8.27;;;;;;;5.34;100.00;99098.78;5085279;28;20043;-73
2024/03/27 06:52:19;;;;;;;10.80;7.75;;;;;;;5.30;100.00;99100.25;5084886;28;20044;-73
2024/03/27 06:54:48;;;;;;;10.98;7.82;;;;;;;5.25;100.00;99094.69;5086643;28;20032;-73
2024/03/27 06:57:13;;;;;;;11.60;7.85;;;;;;;5.37;100.00;99097.56;5068471;28;20051;-73
2024/03/27 06:59:39;;;;;;;13.48;8.27;;;;;;;5.43;100.00;99107.41;5086325;28;20041;-73
2024/03/27 07:02:05;;;;;;;11.18;7.60;;;;;;;5.22;100.00;99087.09;5069102;28;20154;-73
2024/03/27 07:04:30;;;;;;;10.25;7.82;;;;;;;5.47;100.00;99107.81;5085690;28;20034;-73
2024/03/27 07:06:56;;;;;;;13.70;7.82;;;;;;;5.54;100.00;99103.28;5086986;28;20462;-73
2024/03/27 07:09:21;;;;;;;10.38;8.13;;;;;;;5.59;100.00;99111.47;5087029;28;20047;-72
2024/03/27 07:11:46;;;;;;;11.35;8.50;;;;;;;5.51;100.00;99099.19;5068870;28;20607;-73
2024/03/27 07:14:12;;;;;;;11.07;7.35;;;;;;;5.48;100.00;99090.78;5084852;28;20086;-72
2024/03/27 07:16:37;;;;;;;11.32;8.00;;;;;;;5.57;100.00;99098.34;5086213;28;20095;-72
2024/03/27 07:19:04;;;;;;;12.68;8.05;;;;;;;5.55;100.00;99092.38;5068235;28;20145;-72
2024/03/27 07:21:29;;;;;;;12.55;8.10;;;;;;;5.84;100.00;99107.09;5085676;28;20132;-73
2024/03/27 07:23:55;;;;;;;12.35;7.82;;;;;;;5.87;100.00;99098.69;5086627;28;20039;-73
2024/03/27 07:26:20;;;;;;;11.73;7.85;;;;;;;5.84;100.00;99104.44;5085502;28;20060;-73
2024/03/27 07:28:45;;;;;;;13.23;7.60;;;;;;;5.37;100.00;99022.88;5071022;28;20044;-72
2024/03/27 07:31:11;;;;;;;11.50;8.15;;;;;;;5.75;100.00;99067.50;5088041;28;20033;-72
2024/03/27 07:33:36;;;;;;;13.75;7.57;;;;;;;5.97;100.00;99086.78;5071767;28;20040;-72
2024/03/27 07:36:04;;;;;;;14.15;8.48;;;;;;;5.92;100.00;99076.66;5070643;28;20043;-72
2024/03/27 07:38:29;;;;;;;13.25;8.20;;;;;;;6.13;100.00;99086.28;5088276;28;20032;-72
2024/03/27 07:40:55;;;;;;;12.23;8.05;;;;;;;6.17;100.00;99098.19;5070012;28;20098;-72
2024/03/27 07:43:21;;;;;;;13.15;7.82;;;;;;;6.02;100.00;99069.06;5054189;28;20043;-72
2024/03/27 07:45:46;;;;;;;11.77;7.38;;;;;;;6.34;100.00;99080.63;5088604;28;20039;-72
2024/03/27 07:48:12;;;;;;;11.75;7.10;;;;;;;6.20;100.00;99043.53;5087592;28;20037;-72
2024/03/27 07:50:37;;;;;;;11.00;7.55;;;;;;;6.50;100.00;99081.97;5070186;28;20039;-73
2024/03/27 07:53:03;;;;;;;11.15;7.68;;;;;;;6.57;100.00;99066.72;5087211;28;20028;-72
2024/03/27 07:55:28;;;;;;;12.27;7.47;;;;;;;6.70;100.00;99073.84;5088541;28;20032;-72
2024/03/27 07:57:54;;;;;;;10.07;7.40;;;;;;;6.86;100.00;99066.34;5069479;28;20036;-73
2024/03/27 08:00:19;;;;;;;9.52;7.47;;;;;;;6.85;100.00;99051.31;5080256;28;20471;-73
2024/03/27 08:02:45;;;;;;;12.55;7.72;;;;;;;7.07;100.00;99069.44;5080206;28;20032;-72
2024/03/27 08:05:11;;;;;;;11.55;7.55;;;;;;;7.07;100.00;99077.44;5087111;28;20035;-72
2024/03/27 08:07:36;;;;;;;11.23;7.10;;;;;;;7.34;100.00;99066.50;5085739;28;20037;-72
2024/03/27 08:10:05;;;;;;;8.32;6.53;;;;;;;7.45;100.00;99070.31;5086736;28;20044;-72
2024/03/27 08:12:31;;;;;;;9.38;7.03;;;;;;;7.54;100.00;99069.81;5070928;28;20036;-73
2024/03/27 08:14:56;;;;;;;11.38;7.20;;;;;;;7.75;100.00;99073.09;5087384;28;20027;-72
2024/03/27 08:17:22;;;;;;;11.45;7.90;;;;;;;7.30;100.00;98985.06;5088746;28;20046;-73
2024/03/27 08:19:47;;;;;;;10.77;7.00;;;;;;;8.01;100.00;99069.28;5091285;28;20039;-72
2024/03/27 08:22:13;;;;;;;8.95;7.13;;;;;;;8.14;100.00;99070.97;5093055;28;20510;-73
2024/03/27 08:24:38;;;;;;;11.90;7.18;;;;;;;8.37;100.00;99075.63;5090637;28;20044;-73
2024/03/27 08:27:05;;;;;;;12.85;7.40;;;;;;;8.29;100.00;99054.50;5073195;28;20075;-72
2024/03/27 08:29:31;;;;;;;10.68;7.13;;;;;;;8.40;100.00;99048.41;5091020;28;20055;-72
2024/03/27 08:32:00;;;;;;;11.77;6.72;;;;;;;8.63;100.00;99074.47;5092699;28;20039;-72
2024/03/27 08:34:26;;;;;;;11.70;6.90;;;;;;;8.50;100.00;99064.75;5091363;28;20102;-72
2024/03/27 08:36:51;;;;;;;9.40;6.93;;;;;;;8.55;100.00;99053.34;5092415;28;20063;-73
2024/03/27 08:39:17;;;;;;;10.35;6.40;;;;;;;8.53;100.00;99002.63;5075504;28;20044;-73
2024/03/27 08:41:46;;;;;;;11.10;6.57;;;;;;;8.89;100.00;99036.50;5092303;28;20028;-73
2024/03/27 08:44:12;;;;;;;9.00;7.03;;;;;;;9.25;100.00;99050.75;5091489;28;20043;-73
2024/03/27 08:46:37;;;;;;;11.93;6.75;;;;;;;9.35;100.00;99045.63;5090479;28;20036;-72
2024/03/27 08:49:03;;;;;;;12.38;6.57;;;;;;;9.37;100.00;99042.69;5091348;28;20068;-73
2024/03/27 08:51:28;;;;;;;8.95;6.75;;;;;;;9.24;100.00;99019.63;5089386;28;20033;-73
2024/03/27 08:53:53;;;;;;;13.27;6.38;;;;;;;9.61;100.00;99027.41;5071539;28;20530;-73
2024/03/27 08:56:19;;;;;;;10.05;6.13;;;;;;;9.54;100.00;99032.09;5049508;28;20037;-72
2024/03/27 08:58:45;;;;;;;8.90;6.00;;;;;;;9.48;100.00;99019.59;5088765;28;20063;-72
2024/03/27 09:01:18;;;;;;;9.63;6.72;;;;;;;9.49;100.00;99018.53;5071892;28;20533;-73
2024/03/27 09:03:45;;;;;;;11.20;6.40;;;;;;;9.33;100.00;98969.88;5089743;28;20044;-72
2024/03/27 09:06:13;;;;;;;8.85;6.32;;;;;;;9.61;100.00;99016.66;5090286;28;20089;-73
2024/03/27 09:08:38;;;;;;;8.88;5.93;;;;;;;9.72;100.00;99009.63;5088889;28;20095;-73
2024/03/27 09:11:06;;;;;;;6.53;5.55;;;;;;;9.80;100.00;98993.97;5082990;28;20117;-73
2024/03/27 09:13:32;;;;;;;10.98;6.38;;;;;;;10.04;100.00;99034.19;5083783;28;20036;-72
2024/03/27 09:16:00;;;;;;;9.68;5.70;;;;;;;10.29;100.00;99039.25;5068276;28;20075;-73
2024/03/27 09:18:26;;;;;;;7.97;6.07;;;;;;;10.44;100.00;99041.41;5085563;28;20036;-73
2024/03/27 09:20:55;;;;;;;9.32;6.40;;;;;;;10.57;100.00;99041.09;5085110;28;20044;-73
2024/03/27 09:23:22;;;;;;;8.20;5.47;;;;;;;10.55;100.00;99037.84;5084675;28;20040;-72
2024/03/27 09:25:57;;;;;;;8.25;5.57;;;;;;;10.53;100.00;99032.72;5083512;28;20091;-72
2024/03/27 09:28:23;;;;;;;7.15;5.55;;;;;;;10.60;100.00;99035.25;5085345;28;20053;-72
2024/03/27 09:30:49;;;;;;;8.48;5.82;;;;;;;10.58;100.00;99032.78;5049148;28;20056;-73
2024/03/27 09:33:15;;;;;;;7.55;5.32;;;;;;;10.63;100.00;99040.16;5083873;28;20490;-73
2024/03/27 09:35:45;;;;;;;8.20;5.75;;;;;;;10.60;100.00;99024.50;5084283;28;20036;-73
2024/03/27 09:38:10;;;;;;;9.30;5.57;;;;;;;10.60;100.00;99040.63;5084140;28;20032;-73
2024/03/27 09:40:51;;;;;;;7.40;5.50;;;;;;;10.66;100.00;99028.06;5084492;28;20032;-73
2024/03/27 09:43:17;;;;;;;9.10;5.18;;;;;;;10.42;100.00;99038.13;5083213;28;20028;-73
2024/03/27 09:45:46;;;;;;;10.65;5.40;;;;;;;10.52;100.00;99044.50;5084206;28;20036;-73
2024/03/27 09:48:13;;;;;;;7.75;5.50;;;;;;;10.68;100.00;99036.72;5066658;28;20103;-74
2024/03/27 09:50:39;;;;;;;9.35;5.45;;;;;;;10.64;100.00;99012.19;5066143;28;20089;-72
2024/03/27 09:53:06;;;;;;;7.57;5.43;;;;;;;10.94;100.00;99038.78;5043616;28;20047;-73
2024/03/27 09:55:35;;;;;;;9.55;5.22;;;;;;;10.93;100.00;99030.97;5082702;28;20134;-72
2024/03/27 09:58:05;;;;;;;10.63;5.20;;;;;;;10.97;100.00;99007.88;5083173;28;20123;-73
2024/03/27 10:00:33;;;;;;;10.90;5.50;;;;;;;11.17;100.00;99028.91;5082381;28;20025;-73
2024/03/27 10:02:59;;;;;;;8.65;5.32;;;;;;;11.34;100.00;99023.47;5083374;28;20088;-73
2024/03/27 10:05:26;;;;;;;7.78;4.97;;;;;;;11.63;100.00;99041.13;5083705;28;20094;-72
2024/03/27 10:07:55;;;;;;;8.52;4.90;;;;;;;11.53;100.00;99033.72;5083808;28;20040;-73
2024/03/27 10:10:21;;;;;;;9.23;5.22;;;;;;;10.98;100.00;98952.97;5050946;28;20153;-73
2024/03/27 10:12:47;;;;;;;10.23;5.07;;;;;;;11.51;100.00;99030.44;5084317;28;20032;-73
2024/03/27 10:15:12;;;;;;;8.65;4.85;;;;;;;11.43;100.00;99003.97;5084938;28;20549;-73
2024/03/27 10:17:38;;;;;;;7.82;4.80;;;;;;;11.62;100.00;99015.25;5085199;28;20424;-73
2024/03/27 10:20:05;;;;;;;7.47;4.70;;;;;;;11.94;100.00;99028.06;5084185;28;20041;-73
2024/03/27 10:22:34;;;;;;;8.77;5.18;;;;;;;12.29;100.00;99032.25;5084090;28;20059;-73
2024/03/27 10:25:02;;;;;;;12.10;5.47;;;;;;;12.25;100.00;99002.28;5085293;28;20037;-74
2024/03/27 10:27:29;;;;;;;6.15;4.47;;;;;;;12.51;100.00;99021.38;5067813;28;20064;-73
2024/03/27 10:29:54;;;;;;;12.20;5.50;;;;;;;12.62;100.00;99013.16;5083693;28;20032;-73
2024/03/27 10:32:21;;;;;;;11.63;5.00;;;;;;;12.89;100.00;99023.09;5082807;28;20043;-73
2024/03/27 10:34:48;;;;;;;9.20;4.50;;;;;;;12.51;100.00;99000.63;5085062;28;20040;-73
2024/03/27 10:37:15;;;;;;;11.38;5.20;;;;;;;12.72;100.00;99022.41;5083375;28;20040;-73
2024/03/27 10:39:51;;;;;;;5.53;4.10;;;;;;;12.75;100.00;99014.63;5084458;28;20039;-73
2024/03/27 10:42:27;;;;;;;8.55;4.75;;;;;;;12.97;100.00;99013.69;5085728;28;20070;-73
2024/03/27 10:44:57;;;;;;;12.40;4.55;;;;;;;12.97;100.00;99017.19;5068207;28;20042;-73
2024/03/27 10:47:27;;;;;;;6.88;4.50;;;;;;;12.83;100.00;99016.81;5085598;28;20082;-73
2024/03/27 10:49:53;;;;;;;7.85;4.55;;;;;;;12.61;100.00;99019.59;5083939;28;20100;-73
2024/03/27 10:52:20;;;;;;;8.02;4.53;;;;;;;12.73;100.00;99018.63;5081880;28;20039;-72
2024/03/27 10:54:46;;;;;;;6.72;4.30;;;;;;;12.81;100.00;99020.84;5083304;28;20525;-73
2024/03/27 10:57:14;;;;;;;8.18;4.45;;;;;;;13.05;100.00;99010.53;5066024;28;20044;-73
2024/03/27 10:59:42;;;;;;;9.73;4.38;;;;;;;13.12;100.00;99013.81;5083417;28;20092;-73
2024/03/27 11:02:11;;;;;;;6.93;4.22;;;;;;;13.34;100.00;99016.41;5082010;28;20087;-72
2024/03/27 11:04:42;;;;;;;8.30;4.40;;;;;;;13.44;100.00;99018.34;5081578;28;20032;-73
2024/03/27 11:07:08;;;;;;;6.90;4.00;;;;;;;13.54;100.00;99013.84;5082632;28;20040;-74
2024/03/27 11:09:34;;;;;;;6.78;3.90;;;;;;;13.67;100.00;99017.13;5082540;28;20028;-73
2024/03/27 11:12:01;;;;;;;8.68;4.35;;;;;;;13.76;100.00;99029.06;5081990;28;20055;-74
2024/03/27 11:14:26;;;;;;;7.88;4.13;;;;;;;13.72;100.00;99017.16;5082808;28;20092;-73
2024/03/27 11:16:59;;;;;;;4.85;3.60;;;;;;;13.66;100.00;99019.00;5083477;28;20089;-72
2024/03/27 11:19:39;;;;;;;9.10;4.20;;;;;;;13.75;100.00;98997.72;5082067;28;20032;-74
2024/03/27 11:22:17;;;;;;;7.22;3.80;;;;;;;13.78;100.00;99014.22;5066088;28;20039;-73